createdAt,value
2018-03-24T00:01:55.733Z,27.40
2018-03-24T00:04:23.780Z,26.17
2018-03-24T00:06:52.626Z,23.17
2018-03-24T00:09:20.693Z,21.87
2018-03-24T00:11:48.779Z,22.10
2018-03-24T00:14:16.841Z,22.80
2018-03-24T00:16:45.677Z,24.23
2018-03-24T00:19:13.749Z,26.80
2018-03-24T00:21:41.848Z,25.60
2018-03-24T00:24:09.961Z,27.00
2018-03-24T00:26:38.028Z,27.43
2018-03-24T00:29:06.085Z,26.97
2018-03-24T00:31:38.162Z,29.13
2018-03-24T00:34:06.371Z,31.27
2018-03-24T00:36:34.432Z,29.37
2018-03-24T00:39:02.524Z,29.33
2018-03-24T00:41:30.595Z,28.83
2018-03-24T00:43:58.663Z,31.67
2018-03-24T00:46:27.505Z,31.30
2018-03-24T00:48:55.568Z,32.80
2018-03-24T00:51:24.218Z,32.87
2018-03-24T00:53:52.283Z,31.40
2018-03-24T00:56:20.344Z,31.77
2018-03-24T00:58:48.438Z,31.17
2018-03-24T01:01:16.628Z,30.00
2018-03-24T01:03:44.706Z,32.23
2018-03-24T01:06:12.814Z,30.90
2018-03-24T01:08:40.879Z,32.20
2018-03-24T01:11:09.957Z,31.87
2018-03-24T01:13:38.078Z,30.93
2018-03-24T01:16:06.222Z,31.13
2018-03-24T01:18:35.148Z,31.17
2018-03-24T01:21:03.208Z,30.33
2018-03-24T01:23:31.300Z,30.80
2018-03-24T01:25:59.378Z,30.67
2018-03-24T01:28:27.443Z,29.03
2018-03-24T01:30:55.504Z,29.20
2018-03-24T01:33:23.562Z,29.87
2018-03-24T01:35:51.666Z,27.37
2018-03-24T01:38:19.768Z,28.83
2018-03-24T01:40:48.600Z,29.50
2018-03-24T01:43:16.683Z,27.20
2018-03-24T01:45:44.740Z,26.60
2018-03-24T01:48:12.828Z,25.43
2018-03-24T01:50:41.710Z,26.33
2018-03-24T01:53:09.786Z,26.20
2018-03-24T01:55:37.869Z,25.60
2018-03-24T01:58:05.934Z,26.07
2018-03-24T02:00:33.979Z,26.47
2018-03-24T02:03:02.044Z,25.27
2018-03-24T02:05:30.899Z,26.03
2018-03-24T02:07:59.728Z,25.80
2018-03-24T02:10:27.793Z,26.30
2018-03-24T02:12:56.753Z,27.63
2018-03-24T02:15:24.866Z,25.20
2018-03-24T02:17:52.937Z,25.57
2018-03-24T02:20:21.224Z,25.50
2018-03-24T02:22:49.313Z,26.23
2018-03-24T02:25:18.170Z,26.70
2018-03-24T02:27:46.792Z,26.13
2018-03-24T02:30:14.848Z,24.70
2018-03-24T02:32:42.926Z,27.00
2018-03-24T02:35:11.024Z,26.40
2018-03-24T02:37:39.079Z,26.40
2018-03-24T02:40:07.173Z,25.67
2018-03-24T02:42:35.251Z,26.63
2018-03-24T02:45:03.450Z,26.37
2018-03-24T02:47:31.514Z,26.23
2018-03-24T02:50:00.505Z,27.57
2018-03-24T02:52:28.565Z,25.80
2018-03-24T02:54:56.633Z,24.67
2018-03-24T02:57:24.718Z,25.17
2018-03-24T02:59:52.778Z,25.33
2018-03-24T03:02:21.630Z,24.77
2018-03-24T03:04:49.678Z,30.40
2018-03-24T03:07:18.516Z,26.17
2018-03-24T03:09:46.575Z,24.50
2018-03-24T03:12:14.689Z,24.63
2018-03-24T03:14:42.770Z,24.33
2018-03-24T03:17:10.892Z,24.20
2018-03-24T03:19:38.946Z,23.30
2018-03-24T03:22:07.048Z,23.70
2018-03-24T03:24:35.128Z,22.40
2018-03-24T03:27:03.194Z,24.03
2018-03-24T03:29:31.340Z,23.57
2018-03-24T03:32:00.192Z,22.23
2018-03-24T03:34:28.305Z,22.90
2018-03-24T03:36:56.357Z,23.27
2018-03-24T03:39:24.429Z,22.73
2018-03-24T03:41:52.500Z,23.10
2018-03-24T03:44:20.582Z,23.93
2018-03-24T03:46:48.651Z,23.83
2018-03-24T03:49:16.741Z,23.27
2018-03-24T03:51:45.576Z,24.53
2018-03-24T03:54:13.649Z,23.67
2018-03-24T03:56:41.845Z,23.77
2018-03-24T03:59:09.954Z,24.27
2018-03-24T04:01:38.017Z,24.40
2018-03-24T04:04:06.095Z,24.33
2018-03-24T04:06:34.484Z,27.07
2018-03-24T04:09:02.561Z,23.83
2018-03-24T04:11:30.616Z,23.87
2018-03-24T04:13:58.694Z,23.90
2018-03-24T04:16:26.850Z,27.90
2018-03-24T04:18:54.895Z,23.13
2018-03-24T04:21:22.952Z,26.13
2018-03-24T04:23:51.033Z,23.43
2018-03-24T04:26:19.087Z,23.60
2018-03-24T04:28:47.924Z,23.40
2018-03-24T04:31:15.993Z,21.17
2018-03-24T04:33:44.052Z,23.90
2018-03-24T04:36:12.888Z,23.57
2018-03-24T04:38:40.963Z,19.80
2018-03-24T04:41:09.023Z,18.90
2018-03-24T04:43:37.870Z,19.13
2018-03-24T04:46:05.925Z,20.23
2018-03-24T04:48:33.998Z,20.90
2018-03-24T04:51:02.824Z,22.73
2018-03-24T04:53:31.053Z,25.20
2018-03-24T04:55:59.107Z,23.20
2018-03-24T04:58:27.176Z,21.93
2018-03-24T05:00:55.250Z,21.73
2018-03-24T05:03:23.313Z,21.10
2018-03-24T05:05:52.153Z,20.83
2018-03-24T05:08:20.228Z,21.03
2018-03-24T05:10:48.308Z,23.30
2018-03-24T05:13:16.434Z,22.10
2018-03-24T05:15:44.518Z,21.43
2018-03-24T05:18:12.569Z,22.03
2018-03-24T05:20:40.661Z,20.47
2018-03-24T05:23:08.719Z,20.27
2018-03-24T05:25:36.793Z,21.50
2018-03-24T05:28:05.696Z,21.10
2018-03-24T05:30:34.521Z,20.60
2018-03-24T05:33:02.582Z,20.90
2018-03-24T05:35:31.435Z,24.67
2018-03-24T05:37:59.504Z,30.00
2018-03-24T05:40:27.588Z,23.70
2018-03-24T05:42:55.648Z,23.70
2018-03-24T05:45:23.731Z,19.37
2018-03-24T05:47:51.806Z,19.57
2018-03-24T05:50:19.906Z,17.77
2018-03-24T05:52:47.981Z,18.37
2018-03-24T05:55:16.063Z,18.73
2018-03-24T05:57:44.112Z,18.57
2018-03-24T06:00:12.195Z,19.00
2018-03-24T06:02:40.249Z,23.10
2018-03-24T06:05:08.325Z,21.83
2018-03-24T06:07:36.422Z,19.07
2018-03-24T06:10:04.465Z,20.50
2018-03-24T06:12:32.541Z,19.47
2018-03-24T06:15:00.608Z,18.37
2018-03-24T06:17:29.444Z,17.57
2018-03-24T06:19:57.516Z,19.03
2018-03-24T06:22:25.568Z,19.63
2018-03-24T06:24:54.614Z,18.93
2018-03-24T06:27:22.692Z,19.23
2018-03-24T06:29:50.758Z,20.43
2018-03-24T06:32:19.600Z,20.53
2018-03-24T06:34:47.687Z,20.50
2018-03-24T06:37:16.570Z,20.20
2018-03-24T06:39:44.774Z,20.13
2018-03-24T06:42:12.838Z,21.00
2018-03-24T06:44:40.978Z,20.27
2018-03-24T06:47:08.986Z,20.77
2018-03-24T06:49:37.037Z,22.03
2018-03-24T06:52:05.093Z,27.20
2018-03-24T06:54:33.258Z,31.53
2018-03-24T06:57:01.326Z,28.33
2018-03-24T06:59:29.388Z,29.37
2018-03-24T07:01:58.216Z,23.17
2018-03-24T07:04:26.292Z,27.93
2018-03-24T07:06:54.378Z,24.63
2018-03-24T07:09:22.428Z,23.60
2018-03-24T07:11:50.496Z,25.83
2018-03-24T07:14:18.705Z,26.30
2018-03-24T07:16:54.341Z,24.40
2018-03-24T07:21:56.661Z,22.87
2018-03-24T07:24:27.459Z,23.87
2018-03-24T07:26:56.632Z,40.33
2018-03-24T07:29:24.772Z,24.93
2018-03-24T07:31:52.983Z,23.33
2018-03-24T07:34:21.043Z,20.87
2018-03-24T07:36:49.118Z,20.30
2018-03-24T07:39:17.172Z,19.50
2018-03-24T07:41:45.996Z,17.60
2018-03-24T07:44:14.078Z,19.53
2018-03-24T07:46:42.210Z,18.57
2018-03-24T07:49:10.282Z,17.67
2018-03-24T07:51:38.341Z,15.80
2018-03-24T07:54:06.428Z,15.93
2018-03-24T07:56:34.504Z,16.60
2018-03-24T07:59:02.583Z,16.27
2018-03-24T08:01:30.656Z,17.83
2018-03-24T08:03:58.704Z,15.00
2018-03-24T08:06:26.786Z,16.53
2018-03-24T08:08:54.862Z,15.50
2018-03-24T08:11:22.942Z,14.23
2018-03-24T08:13:51.052Z,14.73
2018-03-24T08:16:19.102Z,14.50
2018-03-24T08:18:47.169Z,13.73
2018-03-24T08:21:15.244Z,13.37
2018-03-24T08:23:43.317Z,13.77
2018-03-24T08:26:11.385Z,13.47
2018-03-24T08:28:39.552Z,13.03
2018-03-24T08:31:07.620Z,13.10
2018-03-24T08:33:35.672Z,11.90
2018-03-24T08:36:03.732Z,13.83
2018-03-24T08:38:31.806Z,30.03
2018-03-24T08:40:59.870Z,20.50
2018-03-24T08:43:29.248Z,13.77
2018-03-24T08:45:57.316Z,16.77
2018-03-24T08:48:25.390Z,12.27
2018-03-24T08:50:53.452Z,11.97
2018-03-24T08:53:21.561Z,11.07
2018-03-24T08:55:53.576Z,11.03
2018-03-24T08:58:21.633Z,9.93
2018-03-24T09:00:49.702Z,10.70
2018-03-24T09:03:17.910Z,10.47
2018-03-24T09:05:45.985Z,9.93
2018-03-24T09:08:14.057Z,9.77
2018-03-24T09:10:42.127Z,9.17
2018-03-24T09:13:10.196Z,8.23
2018-03-24T09:15:39.022Z,8.57
2018-03-24T09:18:07.096Z,8.30
2018-03-24T09:20:41.659Z,7.50
2018-03-24T09:23:09.729Z,18.17
2018-03-24T09:25:37.789Z,31.57
2018-03-24T09:28:05.871Z,25.93
2018-03-24T09:30:33.953Z,11.50
2018-03-24T09:33:01.989Z,8.53
2018-03-24T09:35:30.067Z,9.47
2018-03-24T09:37:58.170Z,8.27
2018-03-24T09:40:26.238Z,8.93
2018-03-24T09:42:54.309Z,8.43
2018-03-24T09:45:22.377Z,8.67
2018-03-24T09:47:50.448Z,8.97
2018-03-24T09:50:18.504Z,7.60
2018-03-24T09:52:47.419Z,7.70
2018-03-24T09:55:15.413Z,9.60
2018-03-24T09:57:43.490Z,8.73
2018-03-24T10:00:11.571Z,7.80
2018-03-24T10:02:39.654Z,8.20
2018-03-24T10:05:07.700Z,7.30
2018-03-24T10:07:35.770Z,7.60
2018-03-24T10:10:04.776Z,9.70
2018-03-24T10:12:33.601Z,7.90
2018-03-24T10:15:02.433Z,7.93
2018-03-24T10:17:30.508Z,6.70
2018-03-24T10:19:58.564Z,8.67
2018-03-24T10:25:43.100Z,6.77
2018-03-24T10:28:11.170Z,7.10
2018-03-24T10:30:40.007Z,7.20
2018-03-24T10:33:08.077Z,7.07
2018-03-24T10:35:36.149Z,7.27
2018-03-24T10:38:04.229Z,7.37
2018-03-24T10:40:32.290Z,7.63
2018-03-24T10:43:06.139Z,7.20
2018-03-24T10:45:34.278Z,8.83
2018-03-24T10:48:02.612Z,7.20
2018-03-24T10:50:31.490Z,7.67
2018-03-24T10:52:59.493Z,7.97
2018-03-24T10:55:27.552Z,8.83
2018-03-24T10:57:55.601Z,9.30
2018-03-24T11:00:29.640Z,7.90
2018-03-24T11:02:57.692Z,7.67
2018-03-24T11:05:25.779Z,9.03
2018-03-24T11:07:54.062Z,11.87
2018-03-24T11:10:22.875Z,11.97
2018-03-24T11:12:50.942Z,9.57
2018-03-24T11:15:20.243Z,7.93
2018-03-24T11:17:48.301Z,7.80
2018-03-24T11:20:16.370Z,8.73
2018-03-24T11:22:45.414Z,8.27
2018-03-24T11:25:13.497Z,8.00
2018-03-24T11:27:41.549Z,8.33
2018-03-24T11:30:09.620Z,9.27
2018-03-24T11:32:37.682Z,8.67
2018-03-24T11:35:05.749Z,9.53
2018-03-24T11:37:33.817Z,8.67
2018-03-24T11:40:01.893Z,8.43
2018-03-24T11:42:29.958Z,8.97
2018-03-24T11:44:59.274Z,8.80
2018-03-24T11:47:28.216Z,8.80
2018-03-24T11:49:56.418Z,9.13
2018-03-24T11:52:24.494Z,9.30
2018-03-24T11:54:52.585Z,8.70
2018-03-24T11:57:20.655Z,9.50
2018-03-24T11:59:48.738Z,9.57
2018-03-24T12:02:16.804Z,9.40
2018-03-24T12:04:45.087Z,9.23
2018-03-24T12:07:13.149Z,9.80
2018-03-24T12:09:41.230Z,11.00
2018-03-24T12:12:09.313Z,10.30
2018-03-24T12:14:37.882Z,10.37
2018-03-24T12:17:06.071Z,10.07
2018-03-24T12:19:35.331Z,10.43
2018-03-24T12:22:03.415Z,10.20
2018-03-24T12:24:31.518Z,10.47
2018-03-24T12:26:59.590Z,10.40
2018-03-24T12:29:27.686Z,10.50
2018-03-24T12:31:55.742Z,10.60
2018-03-24T12:34:24.561Z,11.50
2018-03-24T12:36:52.651Z,10.60
2018-03-24T12:39:20.748Z,10.53
2018-03-24T12:41:48.803Z,16.73
2018-03-24T12:44:17.716Z,10.47
2018-03-24T12:46:45.796Z,11.07
2018-03-24T12:49:14.617Z,11.33
2018-03-24T12:51:42.667Z,10.57
2018-03-24T12:54:10.734Z,11.13
2018-03-24T12:56:39.581Z,11.13
2018-03-24T12:59:07.651Z,11.37
2018-03-24T13:01:35.725Z,11.60
2018-03-24T13:04:03.854Z,11.27
2018-03-24T13:06:31.934Z,11.40
2018-03-24T13:09:00.014Z,10.73
2018-03-24T13:11:28.085Z,10.67
2018-03-24T13:13:56.214Z,11.30
2018-03-24T13:16:24.264Z,11.03
2018-03-24T13:18:52.343Z,10.87
2018-03-24T13:21:20.413Z,11.67
2018-03-24T13:23:48.471Z,10.40
2018-03-24T13:26:16.555Z,13.47
2018-03-24T13:28:44.624Z,12.50
2018-03-24T13:31:13.708Z,12.47
2018-03-24T13:33:41.786Z,13.57
2018-03-24T13:36:09.848Z,12.80
2018-03-24T13:38:37.993Z,11.87
2018-03-24T13:41:06.075Z,16.47
2018-03-24T13:43:34.930Z,18.90
2018-03-24T13:46:03.033Z,8.60
2018-03-24T13:48:31.113Z,9.40
2018-03-24T13:50:59.205Z,9.67
2018-03-24T13:53:27.287Z,7.90
2018-03-24T13:55:55.360Z,10.20
2018-03-24T13:58:23.433Z,11.07
2018-03-24T14:00:51.521Z,11.13
2018-03-24T14:03:19.577Z,8.27
2018-03-24T14:05:47.654Z,9.10
2018-03-24T14:08:15.742Z,8.13
2018-03-24T14:10:43.818Z,8.50
2018-03-24T14:13:11.869Z,8.17
2018-03-24T14:15:40.739Z,8.10
2018-03-24T14:18:08.781Z,7.20
2018-03-24T14:20:36.869Z,7.73
2018-03-24T14:23:06.035Z,7.47
2018-03-24T14:25:34.112Z,7.93
2018-03-24T14:28:20.130Z,11.73
2018-03-24T14:31:00.719Z,12.50
2018-03-24T14:33:31.400Z,14.20
2018-03-24T14:36:03.376Z,10.93
2018-03-24T14:38:32.662Z,11.33
2018-03-24T14:41:00.789Z,7.90
2018-03-24T14:43:28.845Z,8.70
2018-03-24T14:45:56.913Z,7.57
2018-03-24T14:48:24.975Z,7.37
2018-03-24T14:50:53.037Z,7.40
2018-03-24T14:53:21.101Z,7.17
2018-03-24T14:55:49.175Z,7.40
2018-03-24T14:58:17.234Z,7.80
2018-03-24T15:00:45.301Z,8.03
2018-03-24T15:03:14.142Z,10.87
2018-03-24T15:05:42.261Z,8.60
2018-03-24T15:08:10.812Z,7.80
2018-03-24T15:10:38.957Z,8.33
2018-03-24T15:13:07.804Z,7.80
2018-03-24T15:15:39.662Z,8.40
2018-03-24T15:18:10.583Z,8.23
2018-03-24T15:20:38.641Z,7.83
2018-03-24T15:23:06.728Z,8.83
2018-03-24T15:25:34.832Z,7.93
2018-03-24T15:28:02.900Z,8.83
2018-03-24T15:30:43.526Z,8.80
2018-03-24T15:33:23.487Z,8.73
2018-03-24T15:36:03.451Z,8.57
2018-03-24T15:38:31.528Z,8.80
2018-03-24T15:40:59.584Z,7.97
2018-03-24T15:43:27.649Z,8.53
2018-03-24T15:45:56.216Z,8.03
2018-03-24T15:48:24.292Z,8.37
2018-03-24T15:50:52.477Z,8.90
2018-03-24T15:53:20.555Z,9.57
2018-03-24T15:55:48.665Z,9.60
2018-03-24T15:58:17.504Z,10.60
2018-03-24T16:00:45.566Z,9.57
2018-03-24T16:03:13.645Z,10.33
2018-03-24T16:05:41.969Z,9.80
2018-03-24T16:08:10.818Z,10.17
2018-03-24T16:10:38.897Z,9.60
2018-03-24T16:13:08.524Z,9.83
2018-03-24T16:15:36.831Z,9.60
2018-03-24T16:18:05.706Z,9.83
2018-03-24T16:20:33.764Z,9.80
2018-03-24T16:23:01.820Z,9.67
2018-03-24T16:25:29.877Z,10.37
2018-03-24T16:27:57.961Z,10.47
2018-03-24T16:30:26.024Z,9.43
2018-03-24T16:32:54.745Z,9.23
2018-03-24T16:35:22.859Z,10.70
2018-03-24T16:37:51.695Z,12.27
2018-03-24T16:40:19.753Z,10.70
2018-03-24T16:42:48.592Z,9.77
2018-03-24T16:45:16.654Z,10.17
2018-03-24T16:47:44.741Z,11.23
2018-03-24T16:50:12.811Z,19.10
2018-03-24T16:52:41.654Z,18.87
2018-03-24T16:55:09.700Z,12.33
2018-03-24T16:57:37.780Z,15.03
2018-03-24T17:00:06.623Z,12.67
2018-03-24T17:02:34.855Z,11.50
2018-03-24T17:05:02.913Z,10.27
2018-03-24T17:07:30.976Z,14.27
2018-03-24T17:10:00.600Z,14.53
2018-03-24T17:12:29.001Z,13.40
2018-03-24T17:14:57.153Z,15.63
2018-03-24T17:17:26.857Z,14.53
2018-03-24T17:19:55.145Z,20.17
2018-03-24T17:22:24.533Z,15.77
2018-03-24T17:24:52.781Z,12.17
2018-03-24T17:27:24.458Z,11.13
2018-03-24T17:29:52.959Z,13.50
2018-03-24T17:32:24.747Z,14.67
2018-03-24T17:34:53.708Z,16.80
2018-03-24T17:37:22.568Z,12.23
2018-03-24T17:39:51.400Z,10.93
2018-03-24T17:42:21.492Z,11.63
2018-03-24T17:44:49.768Z,11.80
2018-03-24T17:47:17.818Z,12.10
2018-03-24T17:49:45.902Z,14.70
2018-03-24T17:52:13.979Z,12.50
2018-03-24T17:54:42.067Z,13.27
2018-03-24T17:57:10.150Z,13.00
2018-03-24T17:59:38.233Z,12.57
2018-03-24T18:02:06.291Z,11.60
2018-03-24T18:04:34.381Z,12.07
2018-03-24T18:07:02.438Z,12.60
2018-03-24T18:09:31.279Z,12.03
2018-03-24T18:11:59.339Z,13.10
2018-03-24T18:14:27.409Z,12.30
2018-03-24T18:16:56.241Z,13.10
2018-03-24T18:19:24.362Z,13.73
2018-03-24T18:21:52.463Z,14.27
2018-03-24T18:24:20.560Z,13.87
2018-03-24T18:26:48.656Z,14.60
2018-03-24T18:29:17.489Z,15.07
2018-03-24T18:31:45.549Z,14.23
2018-03-24T18:34:13.643Z,15.90
2018-03-24T18:36:41.689Z,26.37
2018-03-24T18:39:09.751Z,15.93
2018-03-24T18:41:37.869Z,14.90
2018-03-24T18:44:06.696Z,14.73
2018-03-24T18:46:34.768Z,14.93
2018-03-24T18:49:02.843Z,16.03
2018-03-24T18:51:31.683Z,14.53
2018-03-24T18:53:59.766Z,14.57
2018-03-24T18:56:27.818Z,14.10
2018-03-24T18:58:55.929Z,13.97
2018-03-24T19:01:23.991Z,14.00
2018-03-24T19:03:52.056Z,16.73
2018-03-24T19:06:20.897Z,15.13
2018-03-24T19:08:49.096Z,15.53
2018-03-24T19:11:17.170Z,14.93
2018-03-24T19:13:45.265Z,14.70
2018-03-24T19:16:13.340Z,15.60
2018-03-24T19:18:41.415Z,17.53
2018-03-24T19:21:09.484Z,15.67
2018-03-24T19:23:37.566Z,15.23
2018-03-24T19:26:05.629Z,16.23
2018-03-24T19:28:34.478Z,17.17
2018-03-24T19:31:02.552Z,16.47
2018-03-24T19:33:30.628Z,17.77
2018-03-24T19:35:58.729Z,16.50
2018-03-24T19:38:26.811Z,18.60
2018-03-24T19:40:54.875Z,16.60
2018-03-24T19:43:22.946Z,17.17
2018-03-24T19:45:51.017Z,17.57
2018-03-24T19:48:19.842Z,17.73
2018-03-24T19:50:47.919Z,17.77
2018-03-24T19:53:15.978Z,17.87
2018-03-24T19:55:44.036Z,18.50
2018-03-24T19:58:12.113Z,18.53
2018-03-24T20:00:40.206Z,18.83
2018-03-24T20:03:08.252Z,21.07
2018-03-24T20:05:36.325Z,21.33
2018-03-24T20:08:04.398Z,19.83
2018-03-24T20:10:32.468Z,19.80
2018-03-24T20:13:01.290Z,19.33
2018-03-24T20:15:29.388Z,20.70
2018-03-24T20:17:57.446Z,20.07
2018-03-24T20:20:25.525Z,21.47
2018-03-24T20:22:54.390Z,20.67
2018-03-24T20:25:22.461Z,21.47
2018-03-24T20:27:50.565Z,20.50
2018-03-24T20:30:18.623Z,21.87
2018-03-24T20:32:46.694Z,38.60
2018-03-24T20:35:14.767Z,27.93
2018-03-24T20:37:42.843Z,26.43
2018-03-24T20:40:10.986Z,24.33
2018-03-24T20:42:39.022Z,24.17
2018-03-24T20:45:07.185Z,22.30
2018-03-24T20:47:35.999Z,23.07
2018-03-24T20:50:04.125Z,23.00
2018-03-24T20:52:32.190Z,23.00
2018-03-24T20:55:00.280Z,23.57
2018-03-24T20:57:28.372Z,23.10
2018-03-24T20:59:56.544Z,22.30
2018-03-24T21:02:24.574Z,22.83
2018-03-24T21:04:52.665Z,22.13
2018-03-24T21:07:21.507Z,23.50
2018-03-24T21:09:50.484Z,22.87
2018-03-24T21:12:18.626Z,23.03
2018-03-24T21:14:46.692Z,22.93
2018-03-24T21:17:14.765Z,24.40
2018-03-24T21:19:42.831Z,23.70
2018-03-24T21:22:10.930Z,22.03
2018-03-24T21:24:38.972Z,22.57
2018-03-24T21:27:07.808Z,22.40
2018-03-24T21:29:35.897Z,23.73
2018-03-24T21:32:03.956Z,23.33
2018-03-24T21:34:32.017Z,24.20
2018-03-24T21:37:00.083Z,24.17
2018-03-24T21:39:28.258Z,23.87
2018-03-24T21:41:56.400Z,23.40
2018-03-24T21:44:24.456Z,23.97
2018-03-24T21:46:52.940Z,23.40
2018-03-24T21:49:21.004Z,23.23
2018-03-24T21:51:49.079Z,24.07
2018-03-24T21:54:17.196Z,24.73
2018-03-24T21:56:45.429Z,24.03
2018-03-24T21:59:13.504Z,23.83
2018-03-24T22:01:41.577Z,22.73
2018-03-24T22:04:09.687Z,22.87
2018-03-24T22:06:38.965Z,23.57
2018-03-24T22:09:07.000Z,22.80
2018-03-24T22:11:35.106Z,22.23
2018-03-24T22:14:03.194Z,22.53
2018-03-24T22:16:31.279Z,23.37
2018-03-24T22:18:59.421Z,23.27
2018-03-24T22:21:27.478Z,23.47
2018-03-24T22:23:55.627Z,23.90
2018-03-24T22:26:23.699Z,23.10
2018-03-24T22:28:51.765Z,24.00
2018-03-24T22:31:19.846Z,25.10
2018-03-24T22:33:47.916Z,24.07
2018-03-24T22:36:16.033Z,24.47
2018-03-24T22:38:44.112Z,23.30
2018-03-24T22:41:12.357Z,24.33
2018-03-24T22:43:40.405Z,24.23
2018-03-24T22:46:08.851Z,24.90
2018-03-24T22:48:36.968Z,26.17
2018-03-24T22:51:05.041Z,26.63
2018-03-24T22:53:33.092Z,24.67
2018-03-24T22:56:01.161Z,24.97
2018-03-24T22:58:29.212Z,24.37
2018-03-24T23:00:57.280Z,24.90
2018-03-24T23:03:25.359Z,23.63
2018-03-24T23:05:53.713Z,24.30
2018-03-24T23:08:21.784Z,23.40
2018-03-24T23:10:49.852Z,24.20
2018-03-24T23:13:18.694Z,25.10
2018-03-24T23:15:46.752Z,26.57
2018-03-24T23:18:14.899Z,24.60
2018-03-24T23:20:42.978Z,23.67
2018-03-24T23:23:11.042Z,25.07
2018-03-24T23:25:39.112Z,23.87
2018-03-24T23:28:07.173Z,24.27
2018-03-24T23:30:35.274Z,26.90
2018-03-24T23:33:03.346Z,27.87
2018-03-24T23:35:31.497Z,28.80
2018-03-24T23:37:59.551Z,24.40
2018-03-24T23:40:27.621Z,23.37
2018-03-24T23:42:55.680Z,25.37
2018-03-24T23:45:23.796Z,25.03
2018-03-24T23:47:51.842Z,27.80
2018-03-24T23:50:19.884Z,24.67
2018-03-24T23:52:48.068Z,25.13
2018-03-24T23:55:16.145Z,23.77
2018-03-24T23:57:44.773Z,25.07
